Jerome, ID

7:10 PM MDT on October 24, 2014 (GMT -0600)
Jerome County | Change Station
CLOSE
Current Station
Airport
Location: Jerome,
Elevation: 4049 ft
Nearby Weather Stations

Elev 4049 ft 42.73 °N, 114.46 °W | Updated 17 minutes ago

Clear
Clear
61 °F
Feels Like 61 °F
N
13
Wind Variable Wind from NNE

Today
High -- | Low -- °F
--% Chance of Precip.
Yesterday
High -- | Low -- °F
Precip. -- in
8:01 AM 6:41 PM
New Moon, 1% visible
Pressure 29.96 in
Visibility 10.0 miles
Clouds Clear
Dew Point 34 °F
Humidity 36%
Rainfall 0.00 in
Snow Depth Not available.
UV 0 out of 12
Pollen 2.70 out of 12
Air Quality Not available.
Flu Activity No Activity
METAR KJER 250053Z AUTO 03011KT 10SM CLR 16/01 A3001 RMK AO2 SLP143 T01610011

More Conditions Fewer Conditions

Pressure 29.96 in
Visibility 10.0 miles
Clouds Clear
Dew Point 34 °F
Humidity 36%
Rainfall 0.00 in
Snow Depth Not available.
UV 0 out of 12
Pollen 2.70 out of 12
Air Quality Not available.
Flu Activity No Activity
METAR KJER 250053Z AUTO 03011KT 10SM CLR 16/01 A3001 RMK AO2 SLP143 T01610011

More Conditions Fewer Conditions

10-Day Weather Forecast

Almanac

Astronomy

Oct. 24, 2014 Rise Set
Actual Time 8:01 AM MDT 6:41 PM MDT
Civil Twilight 7:33 AM MDT 7:10 PM MDT
Nautical Twilight 7:00 AM MDT 7:43 PM MDT
Astronomical Twilight 6:27 AM MDT 8:15 PM MDT
Moon 8:45 AM MDT (10/24) 7:23 PM MDT (10/24)
Length of Visible Light 11h 37m
Length of Day
10h 39m
Tomorrow will be 2m 41s shorter.
New Moon, 1% of the Moon is Illuminated
Today
New Moon
Oct 30
First Quarter
Nov 6
Full
Nov 14
Last Quarter
Nov 22
New

Today's Extremes

State Highs State Lows

Community

WunderPhotos

Upload Photos

1,764,741 photos uploaded!

WunderBlogs® & News

Nearby

Air Quality

  Air Quality AQ Index Pollutant
Yesterday Good
PM2.5
Friday Good
PM2.5
Saturday Good
PM2.5
Sunday Good
PM2.5
Monday Good
PM2.5

Snow Depth

Station Depth Elevation
Magic Mountain 0 in 6880 ft
Dollarhide Summit 0 in 8420 ft
Swede Peak 0 in 7640 ft
Hyndman 0 in 7440 ft
Bear Canyon 0 in 7900 ft

Earthquake Activity

City Distance Mag. Time & Date
No recent earthquake activity has been reported nearby.
Minimum magnitude displayed is 2.5.

Coastal Water Temperatures

Place Temperature
No Stations Reporting

Nearby Weather Stations